createdAt,value
2019-04-30T00:00:02.611Z,11.40
2019-04-30T00:01:22.408Z,11.40
2019-04-30T00:02:34.743Z,11.40
2019-04-30T00:03:35.101Z,11.30
2019-04-30T00:04:46.481Z,11.30
2019-04-30T00:05:49.434Z,11.30
2019-04-30T00:06:50.425Z,11.30
2019-04-30T00:07:55.020Z,11.30
2019-04-30T00:08:55.430Z,11.30
2019-04-30T00:09:57.731Z,11.30
2019-04-30T00:10:58.779Z,11.30
2019-04-30T00:12:01.254Z,11.30
2019-04-30T00:13:03.010Z,11.30
2019-04-30T00:14:05.654Z,11.20
2019-04-30T00:15:10.884Z,11.30
2019-04-30T00:16:10.237Z,11.30
2019-04-30T00:17:15.853Z,11.30
2019-04-30T00:18:15.512Z,11.30
2019-04-30T00:19:19.625Z,11.30
2019-04-30T00:20:19.637Z,11.30
2019-04-30T00:21:20.652Z,11.20
2019-04-30T00:22:33.406Z,11.30
2019-04-30T00:23:28.434Z,11.30
2019-04-30T00:24:27.516Z,11.30
2019-04-30T00:25:28.736Z,11.30
2019-04-30T00:26:29.754Z,11.30
2019-04-30T00:27:30.776Z,11.20
2019-04-30T00:28:31.801Z,11.30
2019-04-30T00:29:32.817Z,11.30
2019-04-30T00:30:35.028Z,11.30
2019-04-30T00:31:36.369Z,11.30
2019-04-30T00:32:43.388Z,11.30
2019-04-30T00:33:40.297Z,11.30
2019-04-30T00:34:41.325Z,11.30
2019-04-30T00:35:42.356Z,11.30
2019-04-30T00:36:43.472Z,11.30
2019-04-30T00:37:44.998Z,11.30
2019-04-30T00:38:47.416Z,11.30
2019-04-30T00:39:51.054Z,11.40
2019-04-30T00:40:51.473Z,11.40
2019-04-30T00:41:52.505Z,11.40
2019-04-30T00:42:53.537Z,11.40
2019-04-30T00:43:55.202Z,11.40
2019-04-30T00:44:59.567Z,11.40
2019-04-30T00:45:59.200Z,11.40
2019-04-30T00:47:04.025Z,11.40
2019-04-30T00:48:03.237Z,11.40
2019-04-30T00:49:11.319Z,11.40
2019-04-30T00:50:07.574Z,11.40
2019-04-30T00:51:14.090Z,11.40
2019-04-30T00:52:11.510Z,11.50
2019-04-30T00:53:14.786Z,11.50
2019-04-30T00:54:17.641Z,11.50
2019-04-30T00:55:18.585Z,11.50
2019-04-30T00:56:23.601Z,11.50
2019-04-30T00:57:22.784Z,11.50
2019-04-30T00:58:25.858Z,11.60
2019-04-30T00:59:26.721Z,11.50
2019-04-30T01:00:29.633Z,11.60
2019-04-30T01:01:50.648Z,11.60
2019-04-30T01:02:55.494Z,11.60
2019-04-30T01:04:01.141Z,11.60
2019-04-30T01:05:09.083Z,11.60
2019-04-30T01:06:09.689Z,11.60
2019-04-30T01:07:11.116Z,11.60
2019-04-30T01:08:12.136Z,11.60
2019-04-30T01:09:13.365Z,11.60
2019-04-30T01:10:15.171Z,11.50
2019-04-30T01:11:16.323Z,11.60
2019-04-30T01:12:24.579Z,11.60
2019-04-30T01:13:20.273Z,11.50
2019-04-30T01:14:23.133Z,11.50
2019-04-30T01:15:24.216Z,11.50
2019-04-30T01:16:30.160Z,11.50
2019-04-30T01:17:29.863Z,11.50
2019-04-30T01:18:32.141Z,11.50
2019-04-30T01:19:33.614Z,11.50
2019-04-30T01:20:34.618Z,11.50
2019-04-30T01:21:35.662Z,11.50
2019-04-30T01:22:38.748Z,11.50
2019-04-30T01:23:43.184Z,11.50
2019-04-30T01:24:43.312Z,11.50
2019-04-30T01:25:49.959Z,11.50
2019-04-30T01:26:48.609Z,11.50
2019-04-30T01:27:50.781Z,11.50
2019-04-30T01:28:53.775Z,11.60
2019-04-30T01:29:55.232Z,11.60
2019-04-30T01:30:58.826Z,11.60
2019-04-30T01:31:59.472Z,11.50
2019-04-30T01:33:01.101Z,11.50
2019-04-30T01:34:05.224Z,11.50
2019-04-30T01:35:05.560Z,11.50
2019-04-30T01:36:09.570Z,11.50
2019-04-30T01:37:09.497Z,11.60
2019-04-30T01:38:12.712Z,11.50
2019-04-30T01:39:13.428Z,11.60
2019-04-30T01:40:14.444Z,11.60
2019-04-30T01:41:15.468Z,11.60
2019-04-30T01:42:18.384Z,11.60
2019-04-30T01:43:23.146Z,11.60
2019-04-30T01:44:22.321Z,11.60
2019-04-30T01:45:27.481Z,11.60
2019-04-30T01:46:26.274Z,11.60
2019-04-30T01:47:28.847Z,11.60
2019-04-30T01:48:30.367Z,11.60
2019-04-30T01:49:41.764Z,11.60
2019-04-30T01:50:38.669Z,11.60
2019-04-30T01:51:38.684Z,11.60
2019-04-30T01:52:51.924Z,11.60
2019-04-30T01:53:52.944Z,11.60
2019-04-30T01:54:53.984Z,11.60
2019-04-30T01:55:56.912Z,11.60
2019-04-30T01:57:19.256Z,11.50
2019-04-30T01:58:33.386Z,11.50
2019-04-30T01:59:52.562Z,11.60
2019-04-30T02:00:55.485Z,11.60
2019-04-30T02:01:56.522Z,11.60
2019-04-30T02:02:59.169Z,11.60
2019-04-30T02:04:00.377Z,11.50
2019-04-30T02:05:01.669Z,11.50
2019-04-30T02:06:02.887Z,11.50
2019-04-30T02:07:03.913Z,11.50
2019-04-30T02:08:04.928Z,11.50
2019-04-30T02:09:05.951Z,11.50
2019-04-30T02:10:08.744Z,11.50
2019-04-30T02:11:09.973Z,11.50
2019-04-30T02:12:11.000Z,11.60
2019-04-30T02:13:12.024Z,11.60
2019-04-30T02:14:13.136Z,11.60
2019-04-30T02:15:14.157Z,11.60
2019-04-30T02:16:15.177Z,11.60
2019-04-30T02:17:16.212Z,11.60
2019-04-30T02:18:17.232Z,11.60
2019-04-30T02:19:18.809Z,11.50
2019-04-30T02:20:20.070Z,11.50
2019-04-30T02:21:21.084Z,11.50
2019-04-30T02:22:22.104Z,11.60
2019-04-30T02:23:23.116Z,11.60
2019-04-30T02:24:24.136Z,11.60
2019-04-30T02:25:25.165Z,11.50
2019-04-30T02:26:26.180Z,11.60
2019-04-30T02:27:29.301Z,11.60
2019-04-30T02:28:30.144Z,11.60
2019-04-30T02:29:31.145Z,11.60
2019-04-30T02:30:32.156Z,11.60
2019-04-30T02:31:33.172Z,11.50
2019-04-30T02:32:34.217Z,11.50
2019-04-30T02:33:37.038Z,11.60
2019-04-30T02:34:51.533Z,11.60
2019-04-30T02:35:54.466Z,11.60
2019-04-30T02:37:13.897Z,11.60
2019-04-30T02:38:16.822Z,11.60
2019-04-30T02:39:20.193Z,11.50
2019-04-30T02:40:20.862Z,11.60
2019-04-30T02:41:22.973Z,11.60
2019-04-30T02:42:24.813Z,11.60
2019-04-30T02:43:29.882Z,11.60
2019-04-30T02:44:31.378Z,11.70
2019-04-30T02:45:35.497Z,11.60
2019-04-30T02:46:40.490Z,11.60
2019-04-30T02:47:40.849Z,11.60
2019-04-30T02:48:44.373Z,11.60
2019-04-30T02:49:46.677Z,11.60
2019-04-30T02:50:49.267Z,11.70
2019-04-30T02:51:52.221Z,11.70
2019-04-30T02:52:54.741Z,11.70
2019-04-30T02:54:05.692Z,11.70
2019-04-30T02:55:10.541Z,11.70
2019-04-30T02:56:11.570Z,11.70
2019-04-30T02:57:12.692Z,11.70
2019-04-30T02:58:13.729Z,11.70
2019-04-30T02:59:14.748Z,11.70
2019-04-30T03:00:20.483Z,11.70
2019-04-30T03:01:20.908Z,11.70
2019-04-30T03:02:22.040Z,11.70
2019-04-30T03:03:25.184Z,11.60
2019-04-30T03:04:26.078Z,11.70
2019-04-30T03:05:27.157Z,11.80
2019-04-30T03:06:30.265Z,11.80
2019-04-30T03:07:31.106Z,11.80
2019-04-30T03:08:32.151Z,11.80
2019-04-30T03:09:33.170Z,11.90
2019-04-30T03:10:34.213Z,11.90
2019-04-30T03:11:35.220Z,11.90
2019-04-30T03:12:36.279Z,11.90
2019-04-30T03:13:40.030Z,11.90
2019-04-30T03:14:40.230Z,11.90
2019-04-30T03:15:41.264Z,11.90
2019-04-30T03:16:44.204Z,11.90
2019-04-30T03:17:53.243Z,11.90
2019-04-30T03:19:02.289Z,11.80
2019-04-30T03:20:27.718Z,11.80
2019-04-30T03:21:20.360Z,11.80
2019-04-30T03:22:23.512Z,11.80
2019-04-30T03:23:24.637Z,11.80
2019-04-30T03:24:25.660Z,11.80
2019-04-30T03:25:29.659Z,11.80
2019-04-30T03:26:29.822Z,11.70
2019-04-30T03:27:30.905Z,11.80
2019-04-30T03:28:31.937Z,11.80
2019-04-30T03:29:32.940Z,11.80
2019-04-30T03:30:33.964Z,11.80
2019-04-30T03:31:34.998Z,11.80
2019-04-30T03:32:37.263Z,11.80
2019-04-30T03:33:42.510Z,11.70
2019-04-30T03:34:42.758Z,11.70
2019-04-30T03:35:47.659Z,11.70
2019-04-30T03:36:50.189Z,11.70
2019-04-30T03:37:50.008Z,11.80
2019-04-30T03:38:51.059Z,11.80
2019-04-30T03:39:52.073Z,11.70
2019-04-30T03:40:53.109Z,11.80
2019-04-30T03:41:54.123Z,11.80
2019-04-30T03:42:55.137Z,11.80
2019-04-30T03:43:56.168Z,11.70
2019-04-30T03:44:59.211Z,11.80
2019-04-30T03:46:02.711Z,11.80
2019-04-30T03:47:03.147Z,11.80
2019-04-30T03:48:04.215Z,11.80
2019-04-30T03:49:05.224Z,11.80
2019-04-30T03:50:06.365Z,11.80
2019-04-30T03:51:10.479Z,11.80
2019-04-30T03:52:13.448Z,11.80
2019-04-30T03:53:13.732Z,11.80
2019-04-30T03:54:14.754Z,11.80
2019-04-30T03:55:15.768Z,11.80
2019-04-30T03:56:20.046Z,11.80
2019-04-30T03:57:20.535Z,11.90
2019-04-30T03:58:21.851Z,11.90
2019-04-30T03:59:22.874Z,11.90
2019-04-30T04:00:42.231Z,11.90
2019-04-30T04:01:45.214Z,11.90
2019-04-30T04:02:46.367Z,11.90
2019-04-30T04:04:10.031Z,11.90
2019-04-30T04:05:15.104Z,11.90
2019-04-30T04:06:23.833Z,11.90
2019-04-30T04:07:41.582Z,11.90
2019-04-30T04:08:44.508Z,11.80
2019-04-30T04:09:49.710Z,11.80
2019-04-30T04:10:54.898Z,11.80
2019-04-30T04:11:59.862Z,11.80
2019-04-30T04:13:00.741Z,11.80
2019-04-30T04:14:01.784Z,11.80
2019-04-30T04:15:04.423Z,11.80
2019-04-30T04:16:05.534Z,11.70
2019-04-30T04:17:06.549Z,11.80
2019-04-30T04:18:10.349Z,11.80
2019-04-30T04:19:10.498Z,11.80
2019-04-30T04:20:11.524Z,11.80
2019-04-30T04:21:16.703Z,11.80
2019-04-30T04:22:15.564Z,11.80
2019-04-30T04:23:19.107Z,11.80
2019-04-30T04:24:20.481Z,11.80
2019-04-30T04:25:21.858Z,11.90
2019-04-30T04:26:22.892Z,11.90
2019-04-30T04:27:23.913Z,11.90
2019-04-30T04:28:24.945Z,11.90
2019-04-30T04:29:25.977Z,12.00
2019-04-30T04:30:29.545Z,12.00
2019-04-30T04:31:30.046Z,12.00
2019-04-30T04:32:31.369Z,12.00
2019-04-30T04:33:32.470Z,12.00
2019-04-30T04:34:33.501Z,12.00
2019-04-30T04:35:34.515Z,12.10
2019-04-30T04:36:35.552Z,12.10
2019-04-30T04:37:36.572Z,12.00
2019-04-30T04:38:40.093Z,12.10
2019-04-30T04:39:42.102Z,12.00
2019-04-30T04:40:43.256Z,12.10
2019-04-30T04:41:44.389Z,12.10
2019-04-30T04:42:45.489Z,12.10
2019-04-30T04:43:46.513Z,12.10
2019-04-30T04:44:50.256Z,12.10
2019-04-30T04:45:50.474Z,12.10
2019-04-30T04:46:51.501Z,12.00
2019-04-30T04:47:52.524Z,12.00
2019-04-30T04:48:53.558Z,12.00
2019-04-30T04:49:54.580Z,12.00
2019-04-30T04:50:55.597Z,12.00
2019-04-30T04:51:59.038Z,11.90
2019-04-30T04:52:59.631Z,12.00
2019-04-30T04:54:03.389Z,12.00
2019-04-30T04:55:05.692Z,12.00
2019-04-30T04:56:06.713Z,12.00
2019-04-30T04:57:16.958Z,12.00
2019-04-30T04:58:12.787Z,12.00
2019-04-30T04:59:13.592Z,12.00
2019-04-30T05:00:14.926Z,12.00
2019-04-30T05:01:15.933Z,12.00
2019-04-30T05:02:34.004Z,12.00
2019-04-30T05:03:39.906Z,12.00
2019-04-30T05:04:41.135Z,12.00
2019-04-30T05:05:42.145Z,12.00
2019-04-30T05:06:43.164Z,12.00
2019-04-30T05:07:44.185Z,12.00
2019-04-30T05:08:45.206Z,12.00
2019-04-30T05:09:46.253Z,12.00
2019-04-30T05:10:47.264Z,12.00
2019-04-30T05:11:48.726Z,12.00
2019-04-30T05:12:51.057Z,12.00
2019-04-30T05:13:52.252Z,12.00
2019-04-30T05:14:53.304Z,12.00
2019-04-30T05:15:54.329Z,12.10
2019-04-30T05:16:55.356Z,12.10
2019-04-30T05:17:56.388Z,12.10
2019-04-30T05:18:58.648Z,12.20
2019-04-30T05:20:00.443Z,12.20
2019-04-30T05:21:01.547Z,12.20
2019-04-30T05:22:02.589Z,12.20
2019-04-30T05:23:03.607Z,12.30
2019-04-30T05:24:04.655Z,12.20
2019-04-30T05:25:08.674Z,12.20
2019-04-30T05:26:11.059Z,12.20
2019-04-30T05:27:12.399Z,12.30
2019-04-30T05:28:13.419Z,12.30
2019-04-30T05:29:14.441Z,12.30
2019-04-30T05:30:15.978Z,12.30
2019-04-30T05:31:18.427Z,12.20
2019-04-30T05:32:19.912Z,12.30
2019-04-30T05:33:20.944Z,12.30
2019-04-30T05:34:21.965Z,12.30
2019-04-30T05:35:22.993Z,12.30
2019-04-30T05:36:24.049Z,12.40
2019-04-30T05:37:25.172Z,12.40
2019-04-30T05:38:26.294Z,12.40
2019-04-30T05:39:28.432Z,12.40
2019-04-30T05:40:29.543Z,12.40
2019-04-30T05:41:30.568Z,12.40
2019-04-30T05:42:31.588Z,12.40
2019-04-30T05:43:32.604Z,12.40
2019-04-30T05:44:33.632Z,12.40
2019-04-30T05:45:34.681Z,12.40
2019-04-30T05:46:35.700Z,12.40
2019-04-30T05:47:38.720Z,12.40
2019-04-30T05:48:39.789Z,12.40
2019-04-30T05:49:40.855Z,12.50
2019-04-30T05:50:41.877Z,12.50
2019-04-30T05:51:52.768Z,12.50
2019-04-30T05:52:45.815Z,12.50
2019-04-30T05:53:46.848Z,12.50
2019-04-30T05:54:48.792Z,12.50
2019-04-30T05:55:50.045Z,12.50
2019-04-30T05:56:51.076Z,12.50
2019-04-30T05:57:56.346Z,12.50
2019-04-30T05:58:55.121Z,12.50
2019-04-30T05:59:56.132Z,12.50
2019-04-30T06:00:57.160Z,12.50
2019-04-30T06:01:59.262Z,12.50
2019-04-30T06:03:00.510Z,12.50
2019-04-30T06:04:01.532Z,12.50
2019-04-30T06:05:04.352Z,12.50
2019-04-30T06:06:05.491Z,12.50
2019-04-30T06:07:08.333Z,12.50
2019-04-30T06:08:11.340Z,12.50
2019-04-30T06:09:31.130Z,12.50
2019-04-30T06:10:41.521Z,12.50
2019-04-30T06:12:02.656Z,12.50
2019-04-30T06:13:05.670Z,12.50
2019-04-30T06:14:25.073Z,12.50
2019-04-30T06:15:38.977Z,12.50
2019-04-30T06:16:39.937Z,12.50
2019-04-30T06:18:00.228Z,12.40
2019-04-30T06:18:56.317Z,12.40
2019-04-30T06:19:59.070Z,12.40
2019-04-30T06:21:01.195Z,12.40
2019-04-30T06:22:07.400Z,12.40
2019-04-30T06:23:06.545Z,12.40
2019-04-30T06:24:08.260Z,12.50
2019-04-30T06:25:11.003Z,12.50
2019-04-30T06:26:13.241Z,12.50
2019-04-30T06:27:14.435Z,12.50
2019-04-30T06:28:15.776Z,12.50
2019-04-30T06:29:16.891Z,12.60
2019-04-30T06:30:19.855Z,12.50
2019-04-30T06:31:31.927Z,12.60
2019-04-30T06:32:24.496Z,12.60
2019-04-30T06:33:25.649Z,12.60
2019-04-30T06:34:29.404Z,12.60
2019-04-30T06:35:30.785Z,12.70
2019-04-30T06:36:31.908Z,12.70
2019-04-30T06:37:32.927Z,12.70
2019-04-30T06:38:33.954Z,12.70
2019-04-30T06:39:34.960Z,12.80
2019-04-30T06:40:35.976Z,12.80
2019-04-30T06:41:37.027Z,12.80
2019-04-30T06:42:39.327Z,12.80
2019-04-30T06:43:40.696Z,12.80
2019-04-30T06:44:42.035Z,12.80
2019-04-30T06:45:43.832Z,12.80
2019-04-30T06:46:45.454Z,12.80
2019-04-30T06:47:48.773Z,12.80
2019-04-30T06:48:51.012Z,12.80
2019-04-30T06:49:52.203Z,12.80
2019-04-30T06:50:53.320Z,12.80
2019-04-30T06:51:54.367Z,12.80
2019-04-30T06:52:58.783Z,12.80
2019-04-30T06:53:58.711Z,12.80
2019-04-30T06:54:59.883Z,12.80
2019-04-30T06:56:00.904Z,12.80
2019-04-30T06:57:01.931Z,12.80
2019-04-30T06:58:12.196Z,12.80
2019-04-30T06:59:05.877Z,12.70
2019-04-30T07:00:09.676Z,12.70
2019-04-30T07:01:10.430Z,12.80
2019-04-30T07:02:11.465Z,12.80
2019-04-30T07:03:12.481Z,12.80
2019-04-30T07:04:13.498Z,12.80
2019-04-30T07:05:14.525Z,12.80
2019-04-30T07:06:27.514Z,12.80
2019-04-30T07:07:23.002Z,12.80
2019-04-30T07:08:42.708Z,12.80
2019-04-30T07:09:52.601Z,12.80
2019-04-30T07:10:55.685Z,12.80
2019-04-30T07:11:59.975Z,12.80
2019-04-30T07:13:18.769Z,12.80
2019-04-30T07:14:19.933Z,12.80
2019-04-30T07:15:20.945Z,12.80
2019-04-30T07:16:21.981Z,12.80
2019-04-30T07:17:22.999Z,12.80
2019-04-30T07:18:24.017Z,12.80
2019-04-30T07:19:32.969Z,12.80
2019-04-30T07:20:29.123Z,12.80
2019-04-30T07:21:31.614Z,12.80
2019-04-30T07:22:40.142Z,12.80
2019-04-30T07:23:36.309Z,12.70
2019-04-30T07:24:39.439Z,12.80
2019-04-30T07:25:40.656Z,12.80
2019-04-30T07:26:41.676Z,12.80
2019-04-30T07:27:42.702Z,12.80
2019-04-30T07:28:49.605Z,12.80
2019-04-30T07:29:46.892Z,12.80
2019-04-30T07:30:51.214Z,12.80
2019-04-30T07:31:51.698Z,12.80
2019-04-30T07:32:53.226Z,12.80
2019-04-30T07:33:54.285Z,12.90
2019-04-30T07:34:55.295Z,12.80
2019-04-30T07:35:56.336Z,12.80
2019-04-30T07:37:11.970Z,12.90
2019-04-30T07:38:04.682Z,12.90
2019-04-30T07:39:05.697Z,12.80
2019-04-30T07:40:09.117Z,12.90
2019-04-30T07:41:10.233Z,12.90
2019-04-30T07:42:11.344Z,12.90
2019-04-30T07:43:12.456Z,12.90
2019-04-30T07:44:30.035Z,12.90
2019-04-30T07:45:16.501Z,12.90
2019-04-30T07:46:19.770Z,12.90
2019-04-30T07:47:20.475Z,12.90
2019-04-30T07:48:26.246Z,12.90
2019-04-30T07:49:24.400Z,12.90
2019-04-30T07:50:26.011Z,12.90
2019-04-30T07:51:30.989Z,12.90
2019-04-30T07:52:33.957Z,12.90
2019-04-30T07:53:33.183Z,12.90
2019-04-30T07:54:34.213Z,12.90
2019-04-30T07:55:35.242Z,12.90
2019-04-30T07:56:40.881Z,12.90
2019-04-30T07:57:40.339Z,12.90
2019-04-30T07:58:41.721Z,12.90
2019-04-30T07:59:42.802Z,12.90
2019-04-30T08:00:43.861Z,12.80
2019-04-30T08:02:03.263Z,12.80
2019-04-30T08:02:59.898Z,12.80
2019-04-30T08:04:09.015Z,12.80
2019-04-30T08:05:15.021Z,12.80
2019-04-30T08:06:19.007Z,12.80
2019-04-30T08:07:20.096Z,12.80
2019-04-30T08:08:25.414Z,12.80
2019-04-30T08:09:24.540Z,12.80
2019-04-30T08:10:25.562Z,12.80
2019-04-30T08:11:26.655Z,12.80
2019-04-30T08:12:31.935Z,12.80
2019-04-30T08:13:32.666Z,12.80
2019-04-30T08:14:33.941Z,12.90
2019-04-30T08:15:34.989Z,12.80
2019-04-30T08:16:36.006Z,12.90
2019-04-30T08:17:38.729Z,12.90
2019-04-30T08:18:40.209Z,12.90
2019-04-30T08:19:41.320Z,12.90
2019-04-30T08:20:49.037Z,12.90
2019-04-30T08:21:50.497Z,12.90
2019-04-30T08:22:51.532Z,12.90
2019-04-30T08:23:53.842Z,12.80
2019-04-30T08:24:54.869Z,12.90
2019-04-30T08:25:55.889Z,12.90
2019-04-30T08:26:56.924Z,12.90
2019-04-30T08:27:59.139Z,12.90
2019-04-30T08:29:00.278Z,12.80
2019-04-30T08:30:01.300Z,12.90
2019-04-30T08:31:02.516Z,12.90
2019-04-30T08:32:03.561Z,12.90
2019-04-30T08:33:04.592Z,12.90
2019-04-30T08:34:05.714Z,12.90
2019-04-30T08:35:06.824Z,12.90
2019-04-30T08:36:09.444Z,12.90
2019-04-30T08:37:17.059Z,12.90
2019-04-30T08:38:13.612Z,13.00
2019-04-30T08:39:14.735Z,13.00
2019-04-30T08:40:15.904Z,13.00
2019-04-30T08:41:19.154Z,13.00
2019-04-30T08:42:31.209Z,13.00
2019-04-30T08:43:22.789Z,13.00
2019-04-30T08:44:23.801Z,13.00
2019-04-30T08:45:24.928Z,13.00
2019-04-30T08:46:25.940Z,13.00
2019-04-30T08:47:28.967Z,13.00
2019-04-30T08:48:44.261Z,13.00
2019-04-30T08:49:33.126Z,13.00
2019-04-30T08:50:34.647Z,13.00
2019-04-30T08:51:35.882Z,13.00
2019-04-30T08:52:36.984Z,13.00
2019-04-30T08:53:38.520Z,13.00
2019-04-30T08:54:40.980Z,13.00
2019-04-30T08:55:42.050Z,13.00
2019-04-30T08:56:43.061Z,13.00
2019-04-30T08:57:44.095Z,13.00
2019-04-30T08:58:45.117Z,13.00
2019-04-30T08:59:46.128Z,13.00
2019-04-30T09:00:48.575Z,13.00
2019-04-30T09:01:49.776Z,13.10
2019-04-30T09:02:50.797Z,13.10
2019-04-30T09:03:51.828Z,13.10
2019-04-30T09:04:54.765Z,13.10
2019-04-30T09:05:58.962Z,13.10
2019-04-30T09:07:00.121Z,13.10
2019-04-30T09:08:01.151Z,13.10
2019-04-30T09:09:05.968Z,13.10
2019-04-30T09:10:09.167Z,13.20
2019-04-30T09:11:22.453Z,13.20
2019-04-30T09:12:13.148Z,13.20
2019-04-30T09:13:14.181Z,13.10
2019-04-30T09:14:15.233Z,13.10
2019-04-30T09:15:16.341Z,13.10
2019-04-30T09:16:19.284Z,13.00
2019-04-30T09:17:20.334Z,13.00
2019-04-30T09:18:21.362Z,13.00
2019-04-30T09:19:22.372Z,13.00
2019-04-30T09:20:23.404Z,13.10
2019-04-30T09:21:24.417Z,13.00
2019-04-30T09:22:25.441Z,13.20
2019-04-30T09:23:40.549Z,13.20
2019-04-30T09:24:31.079Z,13.20
2019-04-30T09:25:32.333Z,13.20
2019-04-30T09:26:33.388Z,13.20
2019-04-30T09:27:34.409Z,13.20
2019-04-30T09:28:35.429Z,13.30
2019-04-30T09:29:36.448Z,13.20
2019-04-30T09:30:38.657Z,13.30
2019-04-30T09:31:41.057Z,13.30
2019-04-30T09:32:42.248Z,13.20
2019-04-30T09:33:43.280Z,13.20
2019-04-30T09:34:44.292Z,13.20
2019-04-30T09:35:45.309Z,13.20
2019-04-30T09:36:46.329Z,13.10
2019-04-30T09:37:49.458Z,13.10
2019-04-30T09:38:50.289Z,13.10
2019-04-30T09:39:51.292Z,13.10
2019-04-30T09:40:52.322Z,13.10
2019-04-30T09:41:53.333Z,13.10
2019-04-30T09:42:54.361Z,13.10
2019-04-30T09:43:55.384Z,13.10
2019-04-30T09:44:57.786Z,13.00
2019-04-30T09:45:59.401Z,13.00
2019-04-30T09:47:00.451Z,13.00
2019-04-30T09:48:01.800Z,13.00
2019-04-30T09:49:03.075Z,13.10
2019-04-30T09:50:04.592Z,13.00
2019-04-30T09:51:05.932Z,13.10
2019-04-30T09:52:08.919Z,13.20
2019-04-30T09:53:10.721Z,13.20
2019-04-30T09:54:13.043Z,13.30
2019-04-30T09:55:14.612Z,13.20
2019-04-30T09:56:15.628Z,13.10
2019-04-30T09:57:16.647Z,13.20
2019-04-30T09:58:20.935Z,13.30
2019-04-30T09:59:20.664Z,13.30
2019-04-30T10:00:22.380Z,13.40
2019-04-30T10:01:23.396Z,13.40
2019-04-30T10:02:24.425Z,13.40
2019-04-30T10:03:25.794Z,13.50
2019-04-30T10:04:29.882Z,13.50
2019-04-30T10:05:31.507Z,13.50
2019-04-30T10:06:39.841Z,13.60
2019-04-30T10:07:35.647Z,13.60
2019-04-30T10:08:47.851Z,13.60
2019-04-30T10:09:39.592Z,13.60
2019-04-30T10:10:45.280Z,13.50
2019-04-30T10:12:03.392Z,13.50
2019-04-30T10:13:04.405Z,13.50
2019-04-30T10:14:05.453Z,13.50
2019-04-30T10:15:09.042Z,13.50
2019-04-30T10:16:26.845Z,13.50
2019-04-30T10:17:35.558Z,13.50
2019-04-30T10:18:36.576Z,13.50
2019-04-30T10:19:39.297Z,13.50
2019-04-30T10:20:42.221Z,13.60
2019-04-30T10:21:43.336Z,13.60
2019-04-30T10:22:44.420Z,13.60
2019-04-30T10:23:45.477Z,13.70
2019-04-30T10:24:46.612Z,13.70
2019-04-30T10:25:48.240Z,13.80
2019-04-30T10:26:49.249Z,13.80
2019-04-30T10:27:50.275Z,13.80
2019-04-30T10:28:51.433Z,13.80
2019-04-30T10:29:52.740Z,13.90
2019-04-30T10:30:53.794Z,13.80
2019-04-30T10:31:54.884Z,13.90
2019-04-30T10:32:55.902Z,13.80
2019-04-30T10:33:58.599Z,13.80
2019-04-30T10:34:59.765Z,13.80
2019-04-30T10:36:00.784Z,13.80
2019-04-30T10:37:02.946Z,13.80
2019-04-30T10:38:04.254Z,13.80
2019-04-30T10:39:06.282Z,13.80
2019-04-30T10:40:07.743Z,13.80
2019-04-30T10:41:08.981Z,13.80
2019-04-30T10:42:10.150Z,13.80
2019-04-30T10:43:11.192Z,13.80
2019-04-30T10:44:12.276Z,13.80
2019-04-30T10:45:13.764Z,13.80
2019-04-30T10:46:14.796Z,13.80
2019-04-30T10:47:16.187Z,13.80
2019-04-30T10:48:17.205Z,13.80
2019-04-30T10:49:19.244Z,13.80
2019-04-30T10:50:21.737Z,13.80
2019-04-30T10:51:22.856Z,13.80
2019-04-30T10:52:24.340Z,13.80
2019-04-30T10:53:25.350Z,13.80
2019-04-30T10:54:26.585Z,13.90
2019-04-30T10:55:31.152Z,13.80
2019-04-30T10:56:32.387Z,13.90
2019-04-30T10:57:33.425Z,13.90
2019-04-30T10:58:34.436Z,14.00
2019-04-30T10:59:35.464Z,13.90
2019-04-30T11:00:39.403Z,13.90
2019-04-30T11:01:40.406Z,13.90
2019-04-30T11:02:41.425Z,13.90
2019-04-30T11:03:42.980Z,13.90
2019-04-30T11:04:44.389Z,13.80
2019-04-30T11:05:45.396Z,13.80
2019-04-30T11:06:46.428Z,13.80
2019-04-30T11:07:49.422Z,13.80
2019-04-30T11:08:50.373Z,13.80
2019-04-30T11:09:51.508Z,13.90
2019-04-30T11:10:52.536Z,13.90
2019-04-30T11:11:53.632Z,13.90
2019-04-30T11:12:54.702Z,13.90
2019-04-30T11:13:55.732Z,14.00
2019-04-30T11:14:56.760Z,14.10
2019-04-30T11:16:06.379Z,14.10
2019-04-30T11:17:00.929Z,14.10
2019-04-30T11:18:02.708Z,14.00
2019-04-30T11:19:04.238Z,14.10
2019-04-30T11:20:06.158Z,14.10
2019-04-30T11:21:09.491Z,14.20
2019-04-30T11:22:10.511Z,14.30
2019-04-30T11:23:14.486Z,14.30
2019-04-30T11:24:14.869Z,14.40
2019-04-30T11:25:16.314Z,14.30
2019-04-30T11:26:18.099Z,14.40
2019-04-30T11:27:20.666Z,14.50
2019-04-30T11:28:22.691Z,14.50
2019-04-30T11:29:24.284Z,14.50
2019-04-30T11:30:25.818Z,14.50
2019-04-30T11:31:34.911Z,14.50
2019-04-30T11:32:36.241Z,14.50
2019-04-30T11:33:37.641Z,14.50
2019-04-30T11:34:38.940Z,14.50
2019-04-30T11:35:39.968Z,14.60
2019-04-30T11:36:41.032Z,14.70
2019-04-30T11:37:42.061Z,14.70
2019-04-30T11:38:43.110Z,14.80
2019-04-30T11:39:44.388Z,14.80
2019-04-30T11:40:45.518Z,14.70
2019-04-30T11:41:46.849Z,14.70
2019-04-30T11:42:47.858Z,14.70
2019-04-30T11:43:49.610Z,14.70
2019-04-30T11:44:50.812Z,14.70
2019-04-30T11:45:55.648Z,14.70
2019-04-30T11:47:06.260Z,14.70
2019-04-30T11:48:08.982Z,14.70
2019-04-30T11:49:10.340Z,14.70
2019-04-30T11:50:12.533Z,14.70
2019-04-30T11:51:13.571Z,14.70
2019-04-30T11:52:14.783Z,14.90
2019-04-30T11:53:25.259Z,15.00
2019-04-30T11:54:18.941Z,15.10
2019-04-30T11:55:19.968Z,15.10
2019-04-30T11:56:20.989Z,15.20
2019-04-30T11:57:22.152Z,15.30
2019-04-30T11:58:23.186Z,15.30
2019-04-30T11:59:24.196Z,15.40
2019-04-30T12:00:27.244Z,15.50
2019-04-30T12:01:29.970Z,15.50
2019-04-30T12:02:32.896Z,15.60
2019-04-30T12:03:33.932Z,15.70
2019-04-30T12:04:34.946Z,15.80
2019-04-30T12:05:35.976Z,15.90
2019-04-30T12:06:37.049Z,16.00
2019-04-30T12:07:39.980Z,16.00
2019-04-30T12:08:59.127Z,16.10
2019-04-30T12:10:19.436Z,16.10
2019-04-30T12:11:22.536Z,16.10
2019-04-30T12:12:24.248Z,16.20
2019-04-30T12:13:26.365Z,16.20
2019-04-30T12:14:29.605Z,16.30
2019-04-30T12:15:31.141Z,16.40
2019-04-30T12:16:33.787Z,16.40
2019-04-30T12:17:35.091Z,16.50
2019-04-30T12:18:36.137Z,16.50
2019-04-30T12:19:38.835Z,16.50
2019-04-30T12:20:40.078Z,16.60
2019-04-30T12:21:41.104Z,16.60
2019-04-30T12:22:42.148Z,16.60
2019-04-30T12:23:43.169Z,16.60
2019-04-30T12:24:44.292Z,16.60
2019-04-30T12:25:45.421Z,16.50
2019-04-30T12:26:46.452Z,16.40
2019-04-30T12:27:48.815Z,16.40
2019-04-30T12:28:50.088Z,16.30
2019-04-30T12:29:51.117Z,16.30
2019-04-30T12:30:52.147Z,16.20
2019-04-30T12:31:53.156Z,16.20
2019-04-30T12:32:54.197Z,16.20
2019-04-30T12:33:55.208Z,16.10
2019-04-30T12:34:56.232Z,16.10
2019-04-30T12:35:59.424Z,16.00
2019-04-30T12:37:00.245Z,16.00
2019-04-30T12:38:01.262Z,16.10
2019-04-30T12:39:04.380Z,16.20
2019-04-30T12:40:06.397Z,16.30
2019-04-30T12:41:07.467Z,16.40
2019-04-30T12:42:08.817Z,16.50
2019-04-30T12:43:10.124Z,16.70
2019-04-30T12:44:11.142Z,16.90
2019-04-30T12:45:12.277Z,17.00
2019-04-30T12:46:13.540Z,17.20
2019-04-30T12:47:14.561Z,17.30
2019-04-30T12:48:18.535Z,17.40
2019-04-30T12:49:20.512Z,17.40
2019-04-30T12:50:23.503Z,17.40
2019-04-30T12:51:26.432Z,17.40
2019-04-30T12:52:41.860Z,17.40
2019-04-30T12:53:44.791Z,17.40
2019-04-30T12:54:47.728Z,17.40
2019-04-30T12:56:00.402Z,17.30
2019-04-30T12:57:06.501Z,17.30
2019-04-30T12:58:09.643Z,17.20
2019-04-30T12:59:10.488Z,17.20
2019-04-30T13:00:11.926Z,17.10
2019-04-30T13:01:12.976Z,17.10
2019-04-30T13:02:14.003Z,17.00
2019-04-30T13:03:15.034Z,17.00
2019-04-30T13:04:16.061Z,17.00
2019-04-30T13:05:18.828Z,17.00
2019-04-30T13:06:20.757Z,17.10
2019-04-30T13:07:22.631Z,17.30
2019-04-30T13:08:24.798Z,17.50
2019-04-30T13:09:26.715Z,17.60
2019-04-30T13:10:29.218Z,17.70
2019-04-30T13:11:31.415Z,17.80
2019-04-30T13:12:33.288Z,17.80
2019-04-30T13:13:35.454Z,17.80
2019-04-30T13:14:50.311Z,17.70
2019-04-30T13:15:39.718Z,17.70
2019-04-30T13:16:40.772Z,17.60
2019-04-30T13:17:41.794Z,17.50
2019-04-30T13:18:42.812Z,17.50
2019-04-30T13:19:43.841Z,17.50
2019-04-30T13:20:44.917Z,17.50
2019-04-30T13:21:45.989Z,17.40
2019-04-30T13:22:48.757Z,17.50
2019-04-30T13:23:49.932Z,17.60